Time;durP1;ratioP1;P1;durP2;ratioP2;P2;SDS_P1;SDS_P2;PMS_P1;PMS_P2;Temp;Humidity;BMP_temperature;BMP_pressure;BME280_temperature;BME280_humidity;BME280_pressure;Samples;Min_cycle;Max_cycle;Signal;HPM_P1;HPM_P2
2022/11/26 00:01:15;;;;;;;4.58;3.00;;;;;;;-0.05;100.00;99623.34;1698440;83;21508;-74
2022/11/26 00:03:42;;;;;;;6.40;3.08;;;;;;;-0.07;100.00;99621.41;1683020;83;21048;-72
2022/11/26 00:06:26;;;;;;;4.10;2.95;;;;;;;-0.09;100.00;99627.05;1739679;81;21021;-72
2022/11/26 00:08:52;;;;;;;5.15;3.37;;;;;;;-0.07;100.00;99630.86;1744862;81;20949;-73
2022/11/26 00:11:19;;;;;;;5.28;3.22;;;;;;;-0.05;100.00;99643.05;1741137;82;21488;-73
2022/11/26 00:13:45;;;;;;;5.58;3.47;;;;;;;-0.04;100.00;99639.82;1763830;80;21117;-72
2022/11/26 00:16:13;;;;;;;4.65;2.80;;;;;;;-0.02;100.00;99643.09;1758975;80;21039;-72
2022/11/26 00:18:41;;;;;;;5.05;3.08;;;;;;;-0.01;100.00;99639.33;1755154;81;20960;-73
2022/11/26 00:21:23;;;;;;;5.25;2.98;;;;;;;0.00;100.00;99647.72;1754684;81;21055;-72
2022/11/26 00:23:50;;;;;;;4.95;3.15;;;;;;;-0.02;100.00;99638.52;1731085;81;20955;-73
2022/11/26 00:26:19;;;;;;;6.05;3.33;;;;;;;-0.04;100.00;99645.22;1735930;81;21108;-73
2022/11/26 00:28:59;;;;;;;5.35;3.00;;;;;;;-0.06;100.00;99644.11;1732042;80;22171;-73
2022/11/26 00:31:26;;;;;;;6.25;3.25;;;;;;;-0.04;100.00;99648.73;1711614;82;21109;-72
2022/11/26 00:33:52;;;;;;;6.83;3.20;;;;;;;-0.03;100.00;99648.20;1753186;81;20928;-73
2022/11/26 00:36:26;;;;;;;5.08;3.02;;;;;;;-0.07;100.00;99650.57;1722984;80;21080;-72
2022/11/26 00:38:57;;;;;;;5.58;2.85;;;;;;;-0.07;100.00;99655.15;1746001;81;21209;-73
2022/11/26 00:41:26;;;;;;;6.70;3.33;;;;;;;-0.09;100.00;99655.39;1736243;81;20899;-72
2022/11/26 00:43:52;;;;;;;4.40;3.00;;;;;;;-0.11;100.00;99660.22;1727742;80;20861;-74
2022/11/26 00:46:20;;;;;;;5.08;3.37;;;;;;;-0.08;100.00;99661.61;1677968;82;21505;-72
2022/11/26 00:48:47;;;;;;;4.37;2.65;;;;;;;-0.06;100.00;99664.88;1754390;80;21072;-72
2022/11/26 00:51:19;;;;;;;4.70;3.02;;;;;;;-0.04;100.00;99659.53;1722699;81;21549;-74
2022/11/26 00:53:45;;;;;;;4.10;2.40;;;;;;;-0.03;100.00;99663.86;1737149;80;21612;-74
2022/11/26 00:56:16;;;;;;;4.22;2.50;;;;;;;0.00;100.00;99662.00;1751207;80;20928;-73
2022/11/26 00:58:44;;;;;;;4.80;2.58;;;;;;;0.00;100.00;99663.34;1742049;81;20928;-73
2022/11/26 01:01:15;;;;;;;4.50;2.70;;;;;;;0.00;100.00;99658.52;1756541;81;21392;-74
2022/11/26 01:03:42;;;;;;;5.35;3.20;;;;;;;0.03;100.00;99659.88;1724531;80;21172;-73
2022/11/26 01:06:30;;;;;;;6.95;3.15;;;;;;;0.06;100.00;99655.34;1729431;80;20985;-72
2022/11/26 01:08:57;;;;;;;4.15;3.12;;;;;;;0.08;100.00;99657.27;1725067;81;21572;-73
2022/11/26 01:11:24;;;;;;;4.95;2.80;;;;;;;0.04;100.00;99658.81;1730727;81;20898;-72
2022/11/26 01:13:53;;;;;;;5.17;3.40;;;;;;;0.03;100.00;99657.99;1746038;81;20966;-72
2022/11/26 01:16:29;;;;;;;4.20;2.70;;;;;;;0.03;100.00;99657.17;1748368;81;21191;-72
2022/11/26 01:18:58;;;;;;;5.17;2.50;;;;;;;0.02;100.00;99656.36;1770245;79;20923;-72
2022/11/26 01:21:26;;;;;;;4.87;3.12;;;;;;;0.00;100.00;99660.65;1707317;81;21558;-72
2022/11/26 01:23:52;;;;;;;6.22;2.98;;;;;;;-0.03;100.00;99654.42;1697287;82;21026;-74
2022/11/26 01:26:26;;;;;;;4.55;2.60;;;;;;;-0.05;100.00;99663.82;1707680;82;20881;-72
2022/11/26 01:28:54;;;;;;;4.72;3.08;;;;;;;-0.09;100.00;99654.58;1748843;80;21281;-75
2022/11/26 01:31:23;;;;;;;5.05;2.72;;;;;;;-0.10;100.00;99657.80;1730224;81;20979;-73
2022/11/26 01:33:51;;;;;;;4.53;2.67;;;;;;;-0.13;100.00;99651.55;1731300;80;20957;-73
2022/11/26 01:36:26;;;;;;;3.62;2.47;;;;;;;-0.16;100.00;99654.73;1751957;80;21014;-76
2022/11/26 01:39:01;;;;;;;5.65;3.20;;;;;;;-0.15;100.00;99656.89;1758574;80;21026;-72
2022/11/26 01:41:59;;;;;;;6.78;2.80;;;;;;;-0.16;100.00;99654.73;1719613;81;21104;-72
2022/11/26 01:44:29;;;;;;;5.53;3.00;;;;;;;-0.16;100.00;99654.73;1728288;82;20983;-75
2022/11/26 01:46:56;;;;;;;7.90;3.87;;;;;;;-0.18;100.00;99656.84;1744963;80;21038;-72
2022/11/26 01:49:32;;;;;;;5.55;3.47;;;;;;;-0.16;100.00;99657.95;1750322;81;20909;-78
2022/11/26 01:52:08;;;;;;;5.95;3.50;;;;;;;-0.16;100.00;99654.73;1746811;81;20964;-72
2022/11/26 01:54:36;;;;;;;5.30;3.02;;;;;;;-0.15;100.00;99660.41;1735421;80;21864;-73
2022/11/26 01:57:19;;;;;;;7.17;2.80;;;;;;;-0.11;100.00;99665.61;1755430;80;21509;-72
2022/11/26 01:59:53;;;;;;;4.00;2.62;;;;;;;-0.10;100.00;99663.20;1766774;80;20979;-73
2022/11/26 02:02:21;;;;;;;6.53;3.05;;;;;;;-0.15;100.00;99658.24;1771220;80;20896;-74
2022/11/26 02:05:12;;;;;;;5.22;3.00;;;;;;;-0.17;100.00;99658.48;1745367;80;20987;-72
2022/11/26 02:07:39;;;;;;;4.60;2.62;;;;;;;-0.16;100.00;99658.77;1742332;80;21264;-73
2022/11/26 02:10:08;;;;;;;5.55;3.10;;;;;;;-0.17;100.00;99661.72;1754794;80;21066;-73
2022/11/26 02:12:36;;;;;;;6.40;2.65;;;;;;;-0.19;100.00;99664.66;1778265;80;20975;-72
2022/11/26 02:15:04;;;;;;;4.45;2.83;;;;;;;-0.17;100.00;99666.58;1703594;82;20929;-73
2022/11/26 02:17:57;;;;;;;4.12;2.40;;;;;;;-0.15;100.00;99668.51;1747870;81;21928;-72
2022/11/26 02:20:42;;;;;;;4.67;2.85;;;;;;;-0.16;100.00;99674.96;1742309;81;21890;-73
2022/11/26 02:23:39;;;;;;;4.58;2.72;;;;;;;-0.17;100.00;99673.33;1746239;81;21035;-73
2022/11/26 02:26:38;;;;;;;3.72;2.52;;;;;;;-0.18;100.00;99670.34;1731643;81;21693;-73
2022/11/26 02:29:27;;;;;;;3.67;2.62;;;;;;;-0.19;100.00;99671.93;1753069;80;21474;-73
2022/11/26 02:32:22;;;;;;;3.60;2.65;;;;;;;-0.21;100.00;99674.05;1764042;80;20868;-74
2022/11/26 02:35:02;;;;;;;3.90;2.50;;;;;;;-0.23;100.00;99678.34;1748113;80;21108;-74
2022/11/26 02:37:50;;;;;;;7.00;2.72;;;;;;;-0.24;100.00;99675.89;1733785;80;20928;-74
2022/11/26 02:40:17;;;;;;;5.78;3.05;;;;;;;-0.25;100.00;99679.11;1757937;80;20939;-74
2022/11/26 02:42:46;;;;;;;12.40;4.90;;;;;;;-0.25;100.00;99683.16;1762895;80;21668;-73
2022/11/26 02:45:24;;;;;;;8.98;3.83;;;;;;;-0.25;100.00;99681.81;1761393;80;21020;-74
2022/11/26 02:47:55;;;;;;;6.22;3.45;;;;;;;-0.24;100.00;99683.45;1760282;80;21204;-73
2022/11/26 02:50:32;;;;;;;3.83;1.95;;;;;;;-0.24;100.00;99688.84;1757331;80;21048;-73
2022/11/26 02:53:00;;;;;;;5.10;2.62;;;;;;;-0.24;100.00;99690.72;1763583;80;20995;-73
2022/11/26 02:55:34;;;;;;;7.83;2.10;;;;;;;-0.27;100.00;99694.72;1761394;80;21012;-73
2022/11/26 02:58:06;;;;;;;6.12;2.72;;;;;;;-0.24;100.00;99696.94;1742858;81;21031;-78
2022/11/26 03:00:39;;;;;;;2.47;1.98;;;;;;;-0.21;100.00;99697.80;1752988;80;21993;-73
2022/11/26 03:03:25;;;;;;;3.30;2.00;;;;;;;-0.21;100.00;99696.45;1727446;80;20951;-81
2022/11/26 03:05:56;;;;;;;2.90;1.92;;;;;;;-0.19;100.00;99693.52;1729010;81;21454;-73
2022/11/26 03:08:32;;;;;;;4.15;2.35;;;;;;;-0.20;100.00;99695.39;1757625;80;20961;-72
2022/11/26 03:11:04;;;;;;;4.58;2.27;;;;;;;-0.23;100.00;99697.23;1737628;81;20905;-73
2022/11/26 03:13:34;;;;;;;4.35;2.25;;;;;;;-0.24;100.00;99694.24;1748534;81;21643;-74
2022/11/26 03:16:08;;;;;;;4.95;2.42;;;;;;;-0.22;100.00;99697.52;1746934;81;21068;-73
2022/11/26 03:18:36;;;;;;;3.22;1.67;;;;;;;-0.21;100.00;99695.11;1766997;80;21513;-79
2022/11/26 03:21:03;;;;;;;3.47;1.82;;;;;;;-0.23;100.00;99697.23;1683226;83;21123;-73
2022/11/26 03:23:35;;;;;;;4.05;1.82;;;;;;;-0.23;100.00;99686.44;1740648;80;20877;-73
2022/11/26 03:26:04;;;;;;;3.85;2.08;;;;;;;-0.23;100.00;99689.13;1773066;80;21433;-75
2022/11/26 03:28:37;;;;;;;2.50;1.92;;;;;;;-0.24;100.00;99688.84;1755462;80;20965;-85
2022/11/26 03:31:07;;;;;;;3.90;1.80;;;;;;;-0.25;100.00;99689.91;1751834;81;20996;-75
2022/11/26 03:33:42;;;;;;;2.87;2.08;;;;;;;-0.26;100.00;99692.84;1751167;81;20941;-73
2022/11/26 03:36:15;;;;;;;3.35;1.98;;;;;;;-0.29;100.00;99694.14;1760284;81;20909;-72
2022/11/26 03:38:46;;;;;;;3.40;2.00;;;;;;;-0.28;100.00;99698.48;1702019;81;20950;-72
2022/11/26 03:41:15;;;;;;;4.30;2.15;;;;;;;-0.25;100.00;99699.34;1737267;81;20884;-70
2022/11/26 03:43:48;;;;;;;6.03;2.70;;;;;;;-0.22;100.00;99699.39;1753934;81;21023;-70
2022/11/26 03:46:19;;;;;;;5.62;2.87;;;;;;;-0.18;100.00;99700.55;1750907;81;20956;-70
2022/11/26 03:48:49;;;;;;;5.40;2.55;;;;;;;-0.17;100.00;99707.59;1743044;81;21083;-72
2022/11/26 03:51:27;;;;;;;8.53;3.50;;;;;;;-0.15;100.00;99706.28;1720425;81;20937;-73
2022/11/26 03:53:59;;;;;;;4.97;2.90;;;;;;;-0.17;100.00;99704.89;1710160;83;21543;-72
2022/11/26 03:56:34;;;;;;;3.30;2.17;;;;;;;-0.18;100.00;99722.14;1720087;81;20976;-71
2022/11/26 03:59:08;;;;;;;4.17;2.70;;;;;;;-0.17;100.00;99715.15;1733159;81;20926;-71
2022/11/26 04:01:37;;;;;;;3.65;2.08;;;;;;;-0.15;100.00;99726.52;1765534;80;21041;-71
2022/11/26 04:04:08;;;;;;;4.22;2.50;;;;;;;-0.06;100.00;99732.35;1707920;82;21246;-75
2022/11/26 04:06:41;;;;;;;4.62;2.42;;;;;;;-0.07;100.00;99728.83;1733504;81;20981;-71
2022/11/26 04:09:10;;;;;;;2.98;2.40;;;;;;;-0.10;100.00;99733.89;1751480;79;20960;-72
2022/11/26 04:11:38;;;;;;;3.65;2.25;;;;;;;-0.12;100.00;99733.31;1771672;80;20934;-70
2022/11/26 04:14:08;;;;;;;4.00;2.30;;;;;;;-0.11;100.00;99737.13;1774033;80;20879;-70
2022/11/26 04:16:37;;;;;;;4.65;2.30;;;;;;;-0.11;100.00;99747.92;1741012;80;21185;-71
2022/11/26 04:19:11;;;;;;;5.05;2.92;;;;;;;-0.12;100.00;99744.11;1740489;81;21434;-72
2022/11/26 04:21:41;;;;;;;3.55;2.20;;;;;;;-0.12;100.00;99750.33;1736346;81;21056;-72
2022/11/26 04:24:10;;;;;;;4.65;2.67;;;;;;;-0.09;100.00;99757.13;1753672;80;20978;-73
2022/11/26 04:26:39;;;;;;;4.50;2.27;;;;;;;-0.10;100.00;99760.35;1735397;80;21562;-72
2022/11/26 04:29:06;;;;;;;3.25;2.17;;;;;;;-0.12;100.00;99758.42;1754416;80;21069;-77
2022/11/26 04:31:35;;;;;;;4.08;2.30;;;;;;;-0.12;100.00;99759.77;1763607;80;21067;-74
2022/11/26 04:34:02;;;;;;;5.37;2.47;;;;;;;-0.10;100.00;99762.23;1755076;80;20999;-73
2022/11/26 04:36:33;;;;;;;4.33;2.75;;;;;;;-0.13;100.00;99760.83;1770991;80;20998;-73
2022/11/26 04:39:04;;;;;;;4.97;3.08;;;;;;;-0.17;100.00;99765.06;1752851;80;21683;-73
2022/11/26 04:41:36;;;;;;;5.58;2.90;;;;;;;-0.18;100.00;99766.66;1766000;80;21115;-73
2022/11/26 04:44:04;;;;;;;6.15;3.12;;;;;;;-0.18;100.00;99765.31;1741253;81;21379;-72
2022/11/26 04:46:41;;;;;;;4.67;2.40;;;;;;;-0.18;100.00;99764.78;1775776;79;21028;-72
2022/11/26 04:49:14;;;;;;;4.53;2.58;;;;;;;-0.17;100.00;99763.72;1727758;82;21240;-72
2022/11/26 04:51:50;;;;;;;3.45;2.10;;;;;;;-0.12;100.00;99767.87;1713920;81;21473;-72
2022/11/26 04:54:21;;;;;;;3.25;1.98;;;;;;;-0.12;100.00;99765.17;1735306;82;22154;-73
2022/11/26 04:56:52;;;;;;;5.92;2.42;;;;;;;-0.11;100.00;99765.98;1734172;81;21027;-75
2022/11/26 04:59:25;;;;;;;3.85;2.20;;;;;;;-0.09;100.00;99765.22;1740942;81;20927;-74
2022/11/26 05:01:58;;;;;;;2.90;2.00;;;;;;;-0.10;100.00;99766.28;1718495;81;20955;-73
2022/11/26 11:22:03;;;;;;;10.48;6.28;;;;;;;0.41;100.00;100015.14;1785229;78;26320;-75
2022/11/26 11:24:29;;;;;;;9.18;5.90;;;;;;;0.43;100.00;100021.13;1761625;80;21073;-76
2022/11/26 11:26:57;;;;;;;12.25;7.03;;;;;;;0.51;100.00;100022.64;1746258;80;21206;-76
2022/11/26 11:29:37;;;;;;;9.68;6.60;;;;;;;0.56;100.00;100022.74;1757280;79;21026;-77
2022/11/26 11:32:06;;;;;;;12.58;7.00;;;;;;;0.58;100.00;100026.00;1734686;80;20943;-80
2022/11/26 11:34:38;;;;;;;9.08;6.17;;;;;;;0.62;100.00;100023.11;1748924;80;20904;-78
2022/11/26 11:37:19;;;;;;;8.85;5.25;;;;;;;0.65;100.00;100024.80;1735729;82;20927;-81
2022/11/26 11:40:05;;;;;;;7.40;5.23;;;;;;;0.66;100.00;100020.22;1687362;83;21153;-79
2022/11/26 11:42:31;;;;;;;9.25;4.83;;;;;;;0.64;100.00;100031.27;1761141;80;21405;-77
2022/11/26 11:44:59;;;;;;;7.67;4.80;;;;;;;0.63;100.00;100036.91;1761640;80;20940;-75
2022/11/26 11:47:43;;;;;;;12.80;6.40;;;;;;;0.61;100.00;100029.57;1757706;80;21511;-80
2022/11/26 11:50:30;;;;;;;10.88;6.28;;;;;;;0.61;100.00;100030.92;1743952;80;20943;-80
2022/11/26 11:53:25;;;;;;;8.33;5.00;;;;;;;0.62;100.00;100030.69;1737455;80;21063;-80
2022/11/26 11:56:16;;;;;;;7.53;5.10;;;;;;;0.66;100.00;100031.84;1749270;81;20986;-78
2022/11/26 11:59:18;;;;;;;8.68;5.35;;;;;;;0.72;100.00;100041.41;1763263;80;20876;-76
2022/11/26 12:02:16;;;;;;;8.90;5.20;;;;;;;0.70;100.00;100038.13;1777924;80;20977;-71
2022/11/26 12:05:05;;;;;;;7.37;4.40;;;;;;;0.62;100.00;100036.09;1747180;80;20940;-68
2022/11/26 12:07:43;;;;;;;7.90;5.47;;;;;;;0.59;100.00;100043.31;1710816;82;22701;-70
2022/11/26 12:10:24;;;;;;;8.63;5.12;;;;;;;0.60;100.00;100044.14;1747950;81;20911;-71
2022/11/26 12:12:55;;;;;;;7.10;4.87;;;;;;;0.64;100.00;100050.71;1751181;80;20888;-70
2022/11/26 12:15:33;;;;;;;9.25;5.70;;;;;;;0.66;100.00;100050.77;1748431;81;21507;-75
2022/11/26 12:18:26;;;;;;;9.90;5.87;;;;;;;0.62;100.00;100049.59;1723188;80;21483;-76
2022/11/26 12:20:59;;;;;;;9.45;5.20;;;;;;;0.60;100.00;100052.25;1749871;80;21327;-80
2022/11/26 12:23:41;;;;;;;;;;;;;;;0.60;100.00;100060.35;1729816;79;21504;-78
2022/11/26 12:26:16;;;;;;;9.20;5.12;;;;;;;0.59;100.00;100059.53;1754992;80;23619;-78
2022/11/26 12:29:01;;;;;;;11.33;6.55;;;;;;;0.56;100.00;100060.03;1752800;80;20904;-73
2022/11/26 12:31:50;;;;;;;11.18;6.15;;;;;;;0.57;100.00;100061.68;1758600;80;21026;-76
2022/11/26 12:34:43;;;;;;;10.43;6.17;;;;;;;0.57;100.00;100065.73;1730073;80;21170;-78
2022/11/26 12:37:22;;;;;;;9.95;6.17;;;;;;;0.58;100.00;100067.87;1726523;81;21132;-78
2022/11/26 12:39:57;;;;;;;9.10;6.10;;;;;;;0.57;100.00;100062.21;1756568;80;20905;-76
2022/11/26 12:43:02;;;;;;;9.18;5.58;;;;;;;0.52;100.00;100070.20;1761966;80;20927;-74
2022/11/26 12:45:55;;;;;;;9.28;5.72;;;;;;;0.47;100.00;100073.61;1742507;81;20996;-75
2022/11/26 12:48:43;;;;;;;11.15;7.05;;;;;;;0.43;100.00;100078.38;1751863;80;21281;-79
2022/11/26 12:51:27;;;;;;;14.73;7.75;;;;;;;0.39;100.00;100078.55;1715836;80;21479;-77
2022/11/26 12:54:23;;;;;;;12.40;7.75;;;;;;;0.37;100.00;100081.48;1749538;79;20980;-79
2022/11/26 12:57:05;;;;;;;13.70;7.80;;;;;;;0.39;100.00;100083.43;1743586;80;20896;-72
2022/11/26 12:59:46;;;;;;;12.33;6.97;;;;;;;0.40;100.00;100075.62;1744856;80;26406;-72
2022/11/26 13:02:31;;;;;;;11.03;6.33;;;;;;;0.43;100.00;100087.83;1770724;79;21215;-71
2022/11/26 13:04:59;;;;;;;12.18;7.45;;;;;;;0.43;100.00;100089.18;1743912;80;21082;-71
2022/11/26 13:07:52;;;;;;;12.03;7.28;;;;;;;0.43;100.00;100090.53;1759345;80;21160;-71
2022/11/26 13:10:42;;;;;;;10.80;6.55;;;;;;;0.45;100.00;100092.47;1750422;80;21081;-71
2022/11/26 13:14:03;;;;;;;11.00;7.33;;;;;;;0.38;100.00;100093.94;1768470;80;20921;-71
2022/11/26 13:16:38;;;;;;;10.05;6.55;;;;;;;0.36;100.00;100096.05;1760873;80;21157;-71
2022/11/26 13:19:23;;;;;;;13.95;7.05;;;;;;;0.38;100.00;100093.94;1760859;80;20976;-77
2022/11/26 13:22:30;;;;;;;11.18;6.22;;;;;;;0.38;100.00;100096.64;1757975;80;20860;-72
2022/11/26 13:25:31;;;;;;;12.10;7.00;;;;;;;0.36;100.00;100102.80;1766265;80;20973;-70
2022/11/26 13:28:33;;;;;;;12.23;6.87;;;;;;;0.28;100.00;100098.58;1753910;80;20963;-71
2022/11/26 13:31:26;;;;;;;12.40;7.15;;;;;;;0.23;100.00;100094.94;1729899;81;21316;-72
2022/11/26 13:34:17;;;;;;;112.60;20.72;;;;;;;0.16;100.00;100101.80;1776119;79;21071;-71
2022/11/26 13:36:55;;;;;;;44.70;9.88;;;;;;;0.12;100.00;100111.95;1771948;80;20880;-72
2022/11/26 13:39:53;;;;;;;26.62;8.73;;;;;;;0.10;100.00;100108.66;1733822;81;20872;-71
2022/11/26 13:43:15;;;;;;;14.60;7.75;;;;;;;0.12;100.00;100111.95;1739467;82;20988;-73
2022/11/26 13:46:08;;;;;;;10.08;7.17;;;;;;;0.20;100.00;100115.66;1725970;82;21086;-70
2022/11/26 13:49:18;;;;;;;11.50;7.37;;;;;;;0.20;100.00;100125.11;1733973;81;20955;-72
2022/11/26 13:51:57;;;;;;;11.18;7.30;;;;;;;0.18;100.00;100120.47;1730995;81;21003;-70
2022/11/26 13:54:35;;;;;;;9.80;6.75;;;;;;;0.16;100.00;100127.98;1724610;82;21622;-70
2022/11/26 13:57:11;;;;;;;12.55;7.17;;;;;;;0.15;100.00;100132.55;1692802;83;21064;-70
2022/11/26 13:59:47;;;;;;;10.65;6.95;;;;;;;0.14;100.00;100130.09;1680949;83;21320;-72
2022/11/26 14:02:36;;;;;;;13.72;7.80;;;;;;;0.12;100.00;100131.67;1700268;83;20980;-68
2022/11/26 14:05:08;;;;;;;15.45;8.58;;;;;;;0.13;100.00;100137.89;1689026;83;20987;-77
2022/11/26 14:07:36;;;;;;;13.35;7.90;;;;;;;0.14;100.00;100135.48;1763834;80;21615;-78
2022/11/26 14:10:04;;;;;;;10.53;6.80;;;;;;;0.11;100.00;100142.70;1747938;80;20955;-76
2022/11/26 14:13:10;;;;;;;11.48;7.05;;;;;;;0.08;100.00;100141.29;1757743;80;21212;-74
2022/11/26 14:15:54;;;;;;;12.28;7.62;;;;;;;0.06;100.00;100142.58;1741156;80;20990;-74
2022/11/26 14:18:56;;;;;;;15.95;9.93;;;;;;;0.07;100.00;100150.97;1755869;80;21139;-77
2022/11/26 14:21:24;;;;;;;14.65;8.80;;;;;;;0.03;100.00;100149.27;1768150;80;20987;-76
2022/11/26 14:23:56;;;;;;;15.13;9.75;;;;;;;0.02;100.00;100151.67;1766193;80;20974;-76
2022/11/26 14:26:33;;;;;;;11.97;7.58;;;;;;;-0.01;100.00;100148.94;1768638;80;21121;-79
2022/11/26 14:29:12;;;;;;;11.40;7.62;;;;;;;-0.02;100.00;100144.59;1757512;80;20897;-78
2022/11/26 14:31:43;;;;;;;11.78;7.35;;;;;;;0.00;100.00;100147.06;1778949;79;20900;-71
2022/11/26 14:34:27;;;;;;;12.90;7.47;;;;;;;0.00;100.00;100157.30;1732829;80;21027;-72
2022/11/26 14:36:57;;;;;;;11.70;7.62;;;;;;;0.00;100.00;100152.45;1730960;81;21024;-71
2022/11/26 14:39:26;;;;;;;19.23;8.38;;;;;;;0.04;100.00;100151.44;1752760;81;20885;-73
2022/11/26 19:49:39;;;;;;;18.75;11.10;;;;;;;-0.49;100.00;100307.33;1784876;78;27456;-74
2022/11/26 19:52:06;;;;;;;16.10;9.80;;;;;;;-0.51;100.00;100313.48;1750157;80;21525;-72
2022/11/26 19:54:33;;;;;;;16.48;10.15;;;;;;;-0.49;100.00;100311.37;1752763;80;21143;-72
2022/11/26 19:56:59;;;;;;;16.93;10.45;;;;;;;-0.46;100.00;100315.80;1754574;80;21477;-72
2022/11/26 19:59:26;;;;;;;16.27;9.30;;;;;;;-0.41;100.00;100320.52;1759559;80;21482;-74
2022/11/26 20:01:54;;;;;;;15.83;9.85;;;;;;;-0.40;100.00;100315.42;1703213;82;21035;-72
2022/11/26 20:04:21;;;;;;;15.40;9.33;;;;;;;-0.40;100.00;100316.77;1714648;81;21544;-77
2022/11/26 20:06:47;;;;;;;19.00;10.50;;;;;;;-0.39;100.00;100318.42;1714221;83;21092;-77
2022/11/26 20:09:14;;;;;;;19.20;11.08;;;;;;;-0.36;100.00;100320.67;1699613;82;21422;-77
2022/11/26 20:11:41;;;;;;;16.25;10.03;;;;;;;-0.31;100.00;100318.13;1697318;83;20986;-78
2022/11/26 20:14:09;;;;;;;15.58;9.35;;;;;;;-0.31;100.00;100319.47;1692342;83;21042;-78
2022/11/26 20:16:39;;;;;;;15.40;9.53;;;;;;;-0.33;100.00;100326.97;1687414;83;21019;-78
2022/11/26 20:19:07;;;;;;;16.50;9.70;;;;;;;-0.36;100.00;100326.06;1699361;83;21113;-78
2022/11/26 20:21:33;;;;;;;15.18;9.30;;;;;;;-0.34;100.00;100329.36;1696392;83;21099;-75
2022/11/26 20:24:08;;;;;;;16.57;10.25;;;;;;;-0.35;100.00;100322.32;1696373;83;21001;-74
2022/11/26 20:26:38;;;;;;;16.65;10.40;;;;;;;-0.34;100.00;100319.92;1695140;83;21188;-73
2022/11/26 20:29:11;;;;;;;16.27;9.45;;;;;;;-0.31;100.00;100324.05;1681747;83;21011;-75
2022/11/26 20:31:46;;;;;;;16.77;10.32;;;;;;;-0.31;100.00;100323.52;1698649;83;21109;-75
2022/11/26 20:34:16;;;;;;;16.85;10.00;;;;;;;-0.32;100.00;100323.75;1753848;80;22009;-74
2022/11/26 20:36:43;;;;;;;15.28;9.55;;;;;;;-0.32;100.00;100332.66;1758740;80;21492;-73
2022/11/26 20:39:13;;;;;;;17.92;10.38;;;;;;;-0.31;100.00;100323.52;1728969;80;21486;-74
2022/11/26 20:41:40;;;;;;;16.73;9.58;;;;;;;-0.29;100.00;100321.94;1716818;83;20944;-79
2022/11/26 20:44:07;;;;;;;13.75;9.15;;;;;;;-0.28;100.00;100327.64;1700078;82;21184;-74
2022/11/26 20:46:34;;;;;;;13.05;8.98;;;;;;;-0.27;100.00;100330.11;1695281;83;21003;-72
2022/11/26 20:49:00;;;;;;;14.23;8.45;;;;;;;-0.28;100.00;100328.47;1660479;84;20957;-72
2022/11/26 20:51:27;;;;;;;15.53;8.20;;;;;;;-0.28;100.00;100333.86;1634849;85;21502;-75
2022/11/26 20:54:02;;;;;;;13.22;8.88;;;;;;;-0.26;100.00;100335.81;1666497;83;21482;-70
2022/11/26 20:56:27;;;;;;;10.03;6.80;;;;;;;-0.26;100.00;100338.51;1670369;85;21705;-71
2022/11/26 20:58:53;;;;;;;10.38;6.62;;;;;;;-0.27;100.00;100338.20;1672417;85;21153;-70
2022/11/26 21:01:27;;;;;;;9.08;6.50;;;;;;;-0.29;100.00;100332.73;1666521;84;20941;-73
2022/11/26 21:03:54;;;;;;;9.13;5.78;;;;;;;-0.30;100.00;100340.01;1660019;85;21523;-73
2022/11/26 21:06:23;;;;;;;8.95;5.97;;;;;;;-0.30;100.00;100338.66;1658390;85;21484;-74
2022/11/26 21:08:50;;;;;;;11.80;7.53;;;;;;;-0.31;100.00;100342.41;1660685;85;21233;-74
2022/11/26 21:11:17;;;;;;;13.08;6.42;;;;;;;-0.29;100.00;100347.58;1657474;85;21004;-74
2022/11/26 21:13:44;;;;;;;10.28;7.15;;;;;;;-0.25;100.00;100346.08;1662167;85;21013;-73
2022/11/26 21:16:13;;;;;;;12.73;8.45;;;;;;;-0.24;100.00;100349.91;1715062;83;21447;-74
2022/11/26 21:18:40;;;;;;;16.23;8.55;;;;;;;-0.24;100.00;100350.42;1710389;83;21394;-74
2022/11/26 21:21:11;;;;;;;13.32;8.55;;;;;;;-0.22;100.00;100349.67;1712065;83;21143;-73
2022/11/26 21:23:38;;;;;;;10.80;7.33;;;;;;;-0.22;100.00;100353.72;1714645;82;20892;-72
2022/11/26 21:26:08;;;;;;;11.55;6.78;;;;;;;-0.21;100.00;100360.24;1710225;83;20869;-74
2022/11/26 21:28:37;;;;;;;9.05;6.08;;;;;;;-0.22;100.00;100359.95;1708337;83;20932;-73
2022/11/26 21:31:15;;;;;;;10.45;6.60;;;;;;;-0.21;100.00;100362.94;1715159;83;21600;-72
2022/11/26 21:33:44;;;;;;;9.30;6.62;;;;;;;-0.25;100.00;100359.05;1707389;82;21143;-71
2022/11/26 21:36:13;;;;;;;11.97;7.45;;;;;;;-0.30;100.00;100367.52;1722793;82;20954;-71
2022/11/26 21:38:41;;;;;;;9.68;6.50;;;;;;;-0.31;100.00;100372.08;1706511;81;21451;-73
2022/11/26 21:41:12;;;;;;;9.23;6.30;;;;;;;-0.35;100.00;100374.93;1700187;83;21486;-71
2022/11/26 21:43:43;;;;;;;9.15;5.65;;;;;;;-0.39;100.00;100366.98;1690651;83;20887;-72
2022/11/26 21:46:25;;;;;;;10.53;6.28;;;;;;;-0.35;100.00;100369.02;1708955;83;21085;-70
2022/11/26 21:48:56;;;;;;;11.40;6.72;;;;;;;-0.30;100.00;100376.95;1706700;82;21018;-72
2022/11/26 21:51:24;;;;;;;9.55;6.20;;;;;;;-0.32;100.00;100369.09;1709814;83;20915;-71
2022/11/26 21:53:54;;;;;;;10.18;6.25;;;;;;;-0.34;100.00;100365.78;1711046;83;20982;-71
2022/11/26 21:56:26;;;;;;;11.00;6.78;;;;;;;-0.36;100.00;100362.48;1710679;83;20935;-74
2022/11/26 21:58:55;;;;;;;11.25;6.20;;;;;;;-0.36;100.00;100358.44;1672344;85;25634;-73
2022/11/26 22:01:29;;;;;;;10.25;6.03;;;;;;;-0.38;100.00;100363.23;1717545;82;20948;-74
2022/11/26 22:04:05;;;;;;;10.03;5.60;;;;;;;-0.38;100.00;100368.63;1718633;82;21028;-77
